RJOP(METAR)
01/24 01:00
METAR RJOP 231600Z 27013KT 9999 FEW015 BKN030 02/M01 Q1023 RMK
1CU015 5CU030 A3024=
戻る
トップページへ戻る
IMOC Co,.Ltd.